KMHV

Mojave Air and Space Port Airport

Mojave, California, USA
METAR KMHV 151840Z AUTO 21015KT 10SM CLR 08/02 A3003 RMK A01
Observed Flight Rules
Feb-15 @ 18:40 UTC (32 minutes ago) Visual Flight Rules
Wind Visibility Clouds
210° at 15 knots 10 miles
  • Clear skies
Temperatures Readings
Current 8°C / 46°F
Dewpoint 2°C / 36°F
Humidity 66%
Altimeter 30.03" Hg
Pressure 1016.92 hPa
Elevation 849
METAR KMHV 151840Z AUTO 21015KT 10SM CLR 08/02 A3003 RMK A01
Observed Flight Rules
Feb-15 @ 18:40 UTC
(32 minutes ago)
VFR
Wind Visibility
210° at 15 knots 10 miles
Clouds
  • Clear skies
Temperature Dewpoint
8°C / 46°F 2°C / 36°F
Humidity Altimeter Pressure
66% 30.03" Hg 1016.92 hPa